sensor_id;sensor_type;location;lat;lon;timestamp;P1;durP1;ratioP1;P2;durP2;ratioP2
71947;SDS011;63257;55.082;38.772;2023-03-24T00:00:18;13.50;;;7.03;;
71947;SDS011;63257;55.082;38.772;2023-03-24T00:02:46;13.10;;;7.07;;
71947;SDS011;63257;55.082;38.772;2023-03-24T00:05:14;15.57;;;7.33;;
71947;SDS011;63257;55.082;38.772;2023-03-24T00:07:46;13.73;;;7.10;;
71947;SDS011;63257;55.082;38.772;2023-03-24T00:10:14;14.27;;;7.13;;
71947;SDS011;63257;55.082;38.772;2023-03-24T00:12:43;14.07;;;7.60;;
71947;SDS011;63257;55.082;38.772;2023-03-24T00:15:12;14.40;;;7.40;;
71947;SDS011;63257;55.082;38.772;2023-03-24T00:17:39;15.60;;;7.75;;
71947;SDS011;63257;55.082;38.772;2023-03-24T00:20:07;14.90;;;6.60;;
71947;SDS011;63257;55.082;38.772;2023-03-24T00:22:45;15.67;;;7.17;;
71947;SDS011;63257;55.082;38.772;2023-03-24T00:25:17;14.20;;;7.45;;
71947;SDS011;63257;55.082;38.772;2023-03-24T00:27:48;13.82;;;7.15;;
71947;SDS011;63257;55.082;38.772;2023-03-24T00:30:16;15.55;;;7.88;;
71947;SDS011;63257;55.082;38.772;2023-03-24T00:32:44;15.50;;;7.75;;
71947;SDS011;63257;55.082;38.772;2023-03-24T00:35:11;15.68;;;8.18;;
71947;SDS011;63257;55.082;38.772;2023-03-24T00:37:39;17.40;;;8.63;;
71947;SDS011;63257;55.082;38.772;2023-03-24T00:40:07;16.43;;;7.77;;
71947;SDS011;63257;55.082;38.772;2023-03-24T00:42:41;17.25;;;8.88;;
71947;SDS011;63257;55.082;38.772;2023-03-24T00:45:11;14.90;;;8.50;;
71947;SDS011;63257;55.082;38.772;2023-03-24T00:47:40;16.33;;;7.93;;
71947;SDS011;63257;55.082;38.772;2023-03-24T00:50:07;14.60;;;8.25;;
71947;SDS011;63257;55.082;38.772;2023-03-24T00:52:36;17.17;;;8.45;;
71947;SDS011;63257;55.082;38.772;2023-03-24T00:55:09;16.52;;;8.63;;
71947;SDS011;63257;55.082;38.772;2023-03-24T00:57:41;15.47;;;7.67;;
71947;SDS011;63257;55.082;38.772;2023-03-24T01:00:21;16.17;;;8.80;;
71947;SDS011;63257;55.082;38.772;2023-03-24T01:02:49;17.33;;;8.32;;
71947;SDS011;63257;55.082;38.772;2023-03-24T01:05:29;17.17;;;8.63;;
71947;SDS011;63257;55.082;38.772;2023-03-24T01:07:59;16.13;;;8.38;;
71947;SDS011;63257;55.082;38.772;2023-03-24T01:10:27;16.15;;;8.43;;
71947;SDS011;63257;55.082;38.772;2023-03-24T01:12:57;17.35;;;8.77;;
71947;SDS011;63257;55.082;38.772;2023-03-24T01:15:26;16.37;;;8.40;;
71947;SDS011;63257;55.082;38.772;2023-03-24T01:17:57;16.70;;;8.77;;
71947;SDS011;63257;55.082;38.772;2023-03-24T01:20:26;14.18;;;7.97;;
71947;SDS011;63257;55.082;38.772;2023-03-24T01:22:57;15.40;;;8.50;;
71947;SDS011;63257;55.082;38.772;2023-03-24T01:25:25;15.55;;;8.35;;
71947;SDS011;63257;55.082;38.772;2023-03-24T01:27:52;14.48;;;8.13;;
71947;SDS011;63257;55.082;38.772;2023-03-24T01:30:22;16.83;;;8.50;;
71947;SDS011;63257;55.082;38.772;2023-03-24T01:32:51;15.07;;;8.47;;
71947;SDS011;63257;55.082;38.772;2023-03-24T01:35:18;15.80;;;8.73;;
71947;SDS011;63257;55.082;38.772;2023-03-24T01:37:45;17.73;;;8.40;;
71947;SDS011;63257;55.082;38.772;2023-03-24T01:40:19;16.27;;;9.30;;
71947;SDS011;63257;55.082;38.772;2023-03-24T01:42:47;16.13;;;8.63;;
71947;SDS011;63257;55.082;38.772;2023-03-24T01:48:15;17.38;;;9.02;;
71947;SDS011;63257;55.082;38.772;2023-03-24T01:50:50;16.65;;;8.98;;
71947;SDS011;63257;55.082;38.772;2023-03-24T01:53:20;16.77;;;8.90;;
71947;SDS011;63257;55.082;38.772;2023-03-24T01:55:47;17.33;;;8.70;;
71947;SDS011;63257;55.082;38.772;2023-03-24T01:58:17;16.53;;;9.17;;
71947;SDS011;63257;55.082;38.772;2023-03-24T02:01:06;15.48;;;8.45;;
71947;SDS011;63257;55.082;38.772;2023-03-24T02:03:53;18.15;;;9.43;;
71947;SDS011;63257;55.082;38.772;2023-03-24T02:06:22;19.52;;;8.98;;
71947;SDS011;63257;55.082;38.772;2023-03-24T02:08:55;15.90;;;9.00;;
71947;SDS011;63257;55.082;38.772;2023-03-24T02:11:26;18.02;;;9.18;;
71947;SDS011;63257;55.082;38.772;2023-03-24T02:13:58;15.90;;;8.80;;
71947;SDS011;63257;55.082;38.772;2023-03-24T02:25:26;18.67;;;9.20;;
71947;SDS011;63257;55.082;38.772;2023-03-24T02:28:24;18.50;;;9.30;;
71947;SDS011;63257;55.082;38.772;2023-03-24T02:31:25;17.85;;;9.32;;
71947;SDS011;63257;55.082;38.772;2023-03-24T02:42:43;20.83;;;9.30;;
71947;SDS011;63257;55.082;38.772;2023-03-24T02:48:53;18.83;;;10.17;;
71947;SDS011;63257;55.082;38.772;2023-03-24T02:51:31;19.67;;;10.10;;
71947;SDS011;63257;55.082;38.772;2023-03-24T02:54:36;18.33;;;8.80;;
71947;SDS011;63257;55.082;38.772;2023-03-24T02:57:17;20.13;;;9.33;;
71947;SDS011;63257;55.082;38.772;2023-03-24T03:00:34;20.63;;;9.73;;
71947;SDS011;63257;55.082;38.772;2023-03-24T03:03:11;20.05;;;10.13;;
71947;SDS011;63257;55.082;38.772;2023-03-24T03:05:41;22.25;;;10.80;;
71947;SDS011;63257;55.082;38.772;2023-03-24T03:08:15;20.47;;;10.10;;
71947;SDS011;63257;55.082;38.772;2023-03-24T03:10:43;18.90;;;10.48;;
71947;SDS011;63257;55.082;38.772;2023-03-24T03:13:25;21.35;;;10.50;;
71947;SDS011;63257;55.082;38.772;2023-03-24T03:15:57;19.33;;;11.17;;
71947;SDS011;63257;55.082;38.772;2023-03-24T03:18:33;19.70;;;10.60;;
71947;SDS011;63257;55.082;38.772;2023-03-24T03:21:11;24.27;;;12.25;;
71947;SDS011;63257;55.082;38.772;2023-03-24T03:23:41;39.88;;;19.60;;
71947;SDS011;63257;55.082;38.772;2023-03-24T03:26:14;21.63;;;11.45;;
71947;SDS011;63257;55.082;38.772;2023-03-24T03:28:45;28.42;;;14.65;;
71947;SDS011;63257;55.082;38.772;2023-03-24T03:31:28;26.65;;;12.63;;
71947;SDS011;63257;55.082;38.772;2023-03-24T03:34:03;38.20;;;19.17;;
71947;SDS011;63257;55.082;38.772;2023-03-24T03:36:42;27.17;;;14.30;;
71947;SDS011;63257;55.082;38.772;2023-03-24T03:39:18;23.55;;;12.43;;
71947;SDS011;63257;55.082;38.772;2023-03-24T03:41:46;25.33;;;12.20;;
71947;SDS011;63257;55.082;38.772;2023-03-24T03:44:13;22.98;;;11.63;;
71947;SDS011;63257;55.082;38.772;2023-03-24T03:46:39;22.27;;;11.30;;
71947;SDS011;63257;55.082;38.772;2023-03-24T03:49:08;23.33;;;12.38;;
71947;SDS011;63257;55.082;38.772;2023-03-24T03:51:34;20.85;;;11.50;;
71947;SDS011;63257;55.082;38.772;2023-03-24T03:54:07;22.92;;;11.75;;
71947;SDS011;63257;55.082;38.772;2023-03-24T03:56:38;23.08;;;13.18;;
71947;SDS011;63257;55.082;38.772;2023-03-24T03:59:25;22.47;;;12.07;;
71947;SDS011;63257;55.082;38.772;2023-03-24T04:20:10;26.27;;;13.57;;
71947;SDS011;63257;55.082;38.772;2023-03-24T04:25:41;25.10;;;12.60;;
71947;SDS011;63257;55.082;38.772;2023-03-24T04:28:34;28.10;;;13.63;;
71947;SDS011;63257;55.082;38.772;2023-03-24T04:33:36;25.42;;;13.15;;
71947;SDS011;63257;55.082;38.772;2023-03-24T04:36:15;25.98;;;13.25;;
71947;SDS011;63257;55.082;38.772;2023-03-24T04:39:11;29.67;;;14.10;;
71947;SDS011;63257;55.082;38.772;2023-03-24T04:41:47;24.85;;;14.02;;
71947;SDS011;63257;55.082;38.772;2023-03-24T04:44:23;25.95;;;13.93;;
71947;SDS011;63257;55.082;38.772;2023-03-24T04:47:10;26.13;;;13.30;;
71947;SDS011;63257;55.082;38.772;2023-03-24T04:49:38;27.05;;;14.32;;
71947;SDS011;63257;55.082;38.772;2023-03-24T04:52:05;27.00;;;14.40;;
71947;SDS011;63257;55.082;38.772;2023-03-24T04:54:34;28.83;;;13.80;;
71947;SDS011;63257;55.082;38.772;2023-03-24T04:57:04;32.37;;;16.03;;
71947;SDS011;63257;55.082;38.772;2023-03-24T04:59:38;27.75;;;14.55;;
71947;SDS011;63257;55.082;38.772;2023-03-24T05:02:05;29.58;;;15.02;;
71947;SDS011;63257;55.082;38.772;2023-03-24T05:04:31;28.53;;;15.60;;
71947;SDS011;63257;55.082;38.772;2023-03-24T05:07:09;30.75;;;15.35;;
71947;SDS011;63257;55.082;38.772;2023-03-24T05:09:36;33.38;;;16.40;;
71947;SDS011;63257;55.082;38.772;2023-03-24T05:12:02;31.42;;;16.20;;
71947;SDS011;63257;55.082;38.772;2023-03-24T05:14:34;29.38;;;15.98;;
71947;SDS011;63257;55.082;38.772;2023-03-24T05:17:00;33.22;;;16.85;;
71947;SDS011;63257;55.082;38.772;2023-03-24T05:19:27;31.45;;;16.27;;
71947;SDS011;63257;55.082;38.772;2023-03-24T05:21:53;31.70;;;16.90;;
71947;SDS011;63257;55.082;38.772;2023-03-24T05:24:22;31.30;;;16.13;;
71947;SDS011;63257;55.082;38.772;2023-03-24T05:26:48;30.58;;;16.10;;
71947;SDS011;63257;55.082;38.772;2023-03-24T05:29:17;65.10;;;32.30;;
71947;SDS011;63257;55.082;38.772;2023-03-24T05:31:43;48.25;;;23.17;;
71947;SDS011;63257;55.082;38.772;2023-03-24T05:34:16;32.15;;;17.60;;
71947;SDS011;63257;55.082;38.772;2023-03-24T05:37:00;34.65;;;17.38;;
71947;SDS011;63257;55.082;38.772;2023-03-24T05:39:27;32.30;;;16.15;;
71947;SDS011;63257;55.082;38.772;2023-03-24T05:42:00;31.83;;;16.90;;
71947;SDS011;63257;55.082;38.772;2023-03-24T05:44:25;31.02;;;17.42;;
71947;SDS011;63257;55.082;38.772;2023-03-24T05:47:02;35.60;;;17.65;;
71947;SDS011;63257;55.082;38.772;2023-03-24T05:49:30;33.97;;;17.73;;
71947;SDS011;63257;55.082;38.772;2023-03-24T05:51:56;35.88;;;17.80;;
71947;SDS011;63257;55.082;38.772;2023-03-24T05:54:23;32.83;;;16.87;;
71947;SDS011;63257;55.082;38.772;2023-03-24T05:56:53;34.92;;;17.60;;
71947;SDS011;63257;55.082;38.772;2023-03-24T05:59:36;34.53;;;17.67;;
71947;SDS011;63257;55.082;38.772;2023-03-24T06:02:16;38.00;;;18.35;;
71947;SDS011;63257;55.082;38.772;2023-03-24T06:04:56;45.53;;;24.13;;
71947;SDS011;63257;55.082;38.772;2023-03-24T06:07:23;56.83;;;28.30;;
71947;SDS011;63257;55.082;38.772;2023-03-24T06:09:52;51.97;;;28.17;;
71947;SDS011;63257;55.082;38.772;2023-03-24T06:12:23;47.70;;;25.05;;
71947;SDS011;63257;55.082;38.772;2023-03-24T06:15:01;38.25;;;19.83;;
71947;SDS011;63257;55.082;38.772;2023-03-24T06:17:29;39.28;;;19.95;;
71947;SDS011;63257;55.082;38.772;2023-03-24T06:19:56;39.13;;;20.70;;
71947;SDS011;63257;55.082;38.772;2023-03-24T06:22:42;34.25;;;17.77;;
71947;SDS011;63257;55.082;38.772;2023-03-24T06:25:14;36.70;;;19.33;;
71947;SDS011;63257;55.082;38.772;2023-03-24T06:27:48;38.05;;;19.67;;
71947;SDS011;63257;55.082;38.772;2023-03-24T06:30:19;36.75;;;18.90;;
71947;SDS011;63257;55.082;38.772;2023-03-24T06:32:45;34.53;;;18.85;;
71947;SDS011;63257;55.082;38.772;2023-03-24T06:35:12;37.70;;;19.65;;
71947;SDS011;63257;55.082;38.772;2023-03-24T06:38:02;36.83;;;18.13;;
71947;SDS011;63257;55.082;38.772;2023-03-24T06:40:29;38.17;;;19.80;;
71947;SDS011;63257;55.082;38.772;2023-03-24T06:42:57;40.30;;;20.80;;
71947;SDS011;63257;55.082;38.772;2023-03-24T06:45:24;39.00;;;20.97;;
71947;SDS011;63257;55.082;38.772;2023-03-24T06:47:51;39.90;;;21.55;;
71947;SDS011;63257;55.082;38.772;2023-03-24T06:50:20;38.03;;;20.38;;
71947;SDS011;63257;55.082;38.772;2023-03-24T06:52:47;42.97;;;20.52;;
71947;SDS011;63257;55.082;38.772;2023-03-24T06:55:18;41.63;;;21.37;;
71947;SDS011;63257;55.082;38.772;2023-03-24T06:57:44;42.90;;;21.35;;
71947;SDS011;63257;55.082;38.772;2023-03-24T07:00:42;40.58;;;19.98;;
71947;SDS011;63257;55.082;38.772;2023-03-24T07:03:23;45.63;;;21.65;;
71947;SDS011;63257;55.082;38.772;2023-03-24T07:06:17;40.80;;;20.92;;
71947;SDS011;63257;55.082;38.772;2023-03-24T07:08:48;40.28;;;21.48;;
71947;SDS011;63257;55.082;38.772;2023-03-24T07:11:15;43.78;;;21.27;;
71947;SDS011;63257;55.082;38.772;2023-03-24T07:13:48;43.92;;;21.20;;
71947;SDS011;63257;55.082;38.772;2023-03-24T07:16:15;41.20;;;19.60;;
71947;SDS011;63257;55.082;38.772;2023-03-24T07:18:41;39.67;;;21.08;;
71947;SDS011;63257;55.082;38.772;2023-03-24T07:21:07;40.90;;;21.75;;
71947;SDS011;63257;55.082;38.772;2023-03-24T07:23:35;36.80;;;20.95;;
71947;SDS011;63257;55.082;38.772;2023-03-24T07:26:09;43.55;;;21.25;;
71947;SDS011;63257;55.082;38.772;2023-03-24T07:28:47;38.78;;;19.60;;
71947;SDS011;63257;55.082;38.772;2023-03-24T07:31:40;37.50;;;20.38;;
71947;SDS011;63257;55.082;38.772;2023-03-24T07:34:09;36.13;;;19.35;;
71947;SDS011;63257;55.082;38.772;2023-03-24T07:36:38;41.83;;;19.83;;
71947;SDS011;63257;55.082;38.772;2023-03-24T07:39:11;41.15;;;20.40;;
71947;SDS011;63257;55.082;38.772;2023-03-24T07:41:47;37.60;;;19.77;;
71947;SDS011;63257;55.082;38.772;2023-03-24T07:44:23;43.70;;;21.02;;
71947;SDS011;63257;55.082;38.772;2023-03-24T07:46:52;40.42;;;21.38;;
71947;SDS011;63257;55.082;38.772;2023-03-24T07:49:18;44.38;;;21.45;;
71947;SDS011;63257;55.082;38.772;2023-03-24T07:54:43;43.42;;;21.88;;
71947;SDS011;63257;55.082;38.772;2023-03-24T07:57:15;41.92;;;21.25;;
71947;SDS011;63257;55.082;38.772;2023-03-24T07:59:41;42.83;;;22.30;;
71947;SDS011;63257;55.082;38.772;2023-03-24T08:02:18;42.50;;;20.73;;
71947;SDS011;63257;55.082;38.772;2023-03-24T08:04:57;42.47;;;21.52;;
71947;SDS011;63257;55.082;38.772;2023-03-24T08:11:14;43.47;;;22.10;;
71947;SDS011;63257;55.082;38.772;2023-03-24T08:13:40;44.33;;;21.33;;
71947;SDS011;63257;55.082;38.772;2023-03-24T08:16:06;43.42;;;22.27;;
71947;SDS011;63257;55.082;38.772;2023-03-24T08:18:33;42.70;;;21.00;;
71947;SDS011;63257;55.082;38.772;2023-03-24T08:21:03;43.58;;;21.67;;
71947;SDS011;63257;55.082;38.772;2023-03-24T08:23:29;43.75;;;22.02;;
71947;SDS011;63257;55.082;38.772;2023-03-24T08:26:03;42.95;;;22.23;;
71947;SDS011;63257;55.082;38.772;2023-03-24T08:28:45;42.60;;;21.47;;
71947;SDS011;63257;55.082;38.772;2023-03-24T08:31:12;44.90;;;22.67;;
71947;SDS011;63257;55.082;38.772;2023-03-24T08:33:38;42.63;;;21.48;;
71947;SDS011;63257;55.082;38.772;2023-03-24T08:36:05;43.00;;;21.48;;
71947;SDS011;63257;55.082;38.772;2023-03-24T08:38:31;46.43;;;21.47;;
71947;SDS011;63257;55.082;38.772;2023-03-24T08:40:58;47.53;;;21.63;;
71947;SDS011;63257;55.082;38.772;2023-03-24T08:43:31;43.08;;;22.17;;
71947;SDS011;63257;55.082;38.772;2023-03-24T08:49:20;44.57;;;22.53;;
71947;SDS011;63257;55.082;38.772;2023-03-24T08:51:48;44.10;;;22.33;;
71947;SDS011;63257;55.082;38.772;2023-03-24T08:54:14;40.53;;;20.73;;
71947;SDS011;63257;55.082;38.772;2023-03-24T08:56:44;42.65;;;22.20;;
71947;SDS011;63257;55.082;38.772;2023-03-24T08:59:10;48.42;;;22.50;;
71947;SDS011;63257;55.082;38.772;2023-03-24T09:01:36;47.10;;;23.27;;
71947;SDS011;63257;55.082;38.772;2023-03-24T09:04:02;44.28;;;22.10;;
71947;SDS011;63257;55.082;38.772;2023-03-24T09:06:28;41.17;;;20.50;;
71947;SDS011;63257;55.082;38.772;2023-03-24T09:09:03;46.08;;;21.58;;
71947;SDS011;63257;55.082;38.772;2023-03-24T09:11:47;40.85;;;21.50;;
71947;SDS011;63257;55.082;38.772;2023-03-24T09:14:21;44.50;;;21.70;;
71947;SDS011;63257;55.082;38.772;2023-03-24T09:16:54;45.38;;;22.48;;
71947;SDS011;63257;55.082;38.772;2023-03-24T09:19:35;40.17;;;21.38;;
71947;SDS011;63257;55.082;38.772;2023-03-24T09:22:24;43.30;;;21.98;;
71947;SDS011;63257;55.082;38.772;2023-03-24T09:24:50;40.50;;;21.20;;
71947;SDS011;63257;55.082;38.772;2023-03-24T09:27:16;41.63;;;20.90;;
71947;SDS011;63257;55.082;38.772;2023-03-24T09:29:43;46.08;;;22.58;;
71947;SDS011;63257;55.082;38.772;2023-03-24T09:32:09;44.75;;;21.98;;
71947;SDS011;63257;55.082;38.772;2023-03-24T09:34:36;43.47;;;22.17;;
71947;SDS011;63257;55.082;38.772;2023-03-24T09:37:05;43.93;;;20.33;;
71947;SDS011;63257;55.082;38.772;2023-03-24T09:39:33;38.33;;;19.50;;
71947;SDS011;63257;55.082;38.772;2023-03-24T09:42:02;43.35;;;22.00;;
71947;SDS011;63257;55.082;38.772;2023-03-24T09:44:30;40.08;;;20.38;;
71947;SDS011;63257;55.082;38.772;2023-03-24T09:47:11;43.63;;;20.90;;
71947;SDS011;63257;55.082;38.772;2023-03-24T09:49:56;39.55;;;20.67;;
71947;SDS011;63257;55.082;38.772;2023-03-24T09:52:37;41.08;;;20.67;;
71947;SDS011;63257;55.082;38.772;2023-03-24T09:55:10;38.50;;;21.10;;
71947;SDS011;63257;55.082;38.772;2023-03-24T09:57:44;39.57;;;22.00;;
71947;SDS011;63257;55.082;38.772;2023-03-24T10:00:25;37.13;;;19.25;;
71947;SDS011;63257;55.082;38.772;2023-03-24T10:02:56;38.88;;;19.42;;
71947;SDS011;63257;55.082;38.772;2023-03-24T10:05:42;33.85;;;18.48;;
71947;SDS011;63257;55.082;38.772;2023-03-24T10:08:18;32.35;;;18.13;;
71947;SDS011;63257;55.082;38.772;2023-03-24T10:16:41;35.38;;;18.63;;
71947;SDS011;63257;55.082;38.772;2023-03-24T10:19:38;31.75;;;16.30;;
71947;SDS011;63257;55.082;38.772;2023-03-24T10:27:26;25.80;;;13.10;;
71947;SDS011;63257;55.082;38.772;2023-03-24T10:30:03;25.60;;;13.57;;
71947;SDS011;63257;55.082;38.772;2023-03-24T10:32:44;18.92;;;10.27;;
71947;SDS011;63257;55.082;38.772;2023-03-24T10:35:18;17.90;;;10.10;;
71947;SDS011;63257;55.082;38.772;2023-03-24T10:37:50;21.23;;;11.37;;
71947;SDS011;63257;55.082;38.772;2023-03-24T10:40:17;21.10;;;11.85;;
71947;SDS011;63257;55.082;38.772;2023-03-24T10:42:49;19.48;;;10.95;;
71947;SDS011;63257;55.082;38.772;2023-03-24T10:45:19;19.83;;;10.43;;
71947;SDS011;63257;55.082;38.772;2023-03-24T10:48:01;16.02;;;9.32;;
71947;SDS011;63257;55.082;38.772;2023-03-24T10:50:29;18.67;;;10.07;;
71947;SDS011;63257;55.082;38.772;2023-03-24T10:52:58;16.23;;;8.98;;
71947;SDS011;63257;55.082;38.772;2023-03-24T10:55:30;18.95;;;10.52;;
71947;SDS011;63257;55.082;38.772;2023-03-24T10:58:14;16.05;;;8.35;;
71947;SDS011;63257;55.082;38.772;2023-03-24T11:00:47;16.42;;;8.98;;
71947;SDS011;63257;55.082;38.772;2023-03-24T11:03:21;13.67;;;7.63;;
71947;SDS011;63257;55.082;38.772;2023-03-24T11:06:11;14.68;;;8.65;;
71947;SDS011;63257;55.082;38.772;2023-03-24T11:09:05;13.55;;;7.50;;
71947;SDS011;63257;55.082;38.772;2023-03-24T11:11:43;12.55;;;7.22;;
71947;SDS011;63257;55.082;38.772;2023-03-24T11:14:17;13.88;;;8.23;;
71947;SDS011;63257;55.082;38.772;2023-03-24T11:16:50;13.20;;;7.07;;
71947;SDS011;63257;55.082;38.772;2023-03-24T11:19:19;10.27;;;6.00;;
71947;SDS011;63257;55.082;38.772;2023-03-24T11:21:47;13.13;;;7.38;;
71947;SDS011;63257;55.082;38.772;2023-03-24T11:24:15;13.63;;;7.22;;
71947;SDS011;63257;55.082;38.772;2023-03-24T11:29:19;11.87;;;6.60;;
71947;SDS011;63257;55.082;38.772;2023-03-24T11:31:52;10.38;;;5.93;;
71947;SDS011;63257;55.082;38.772;2023-03-24T11:34:22;11.40;;;6.18;;
71947;SDS011;63257;55.082;38.772;2023-03-24T11:36:59;11.95;;;6.00;;
71947;SDS011;63257;55.082;38.772;2023-03-24T11:39:38;11.30;;;6.32;;
71947;SDS011;63257;55.082;38.772;2023-03-24T11:47:57;10.65;;;5.78;;
71947;SDS011;63257;55.082;38.772;2023-03-24T11:50:27;9.43;;;5.78;;
71947;SDS011;63257;55.082;38.772;2023-03-24T11:53:01;10.95;;;6.28;;
71947;SDS011;63257;55.082;38.772;2023-03-24T11:58:28;9.57;;;5.47;;
71947;SDS011;63257;55.082;38.772;2023-03-24T12:13:02;9.93;;;4.75;;
71947;SDS011;63257;55.082;38.772;2023-03-24T12:15:43;8.55;;;4.53;;
71947;SDS011;63257;55.082;38.772;2023-03-24T12:26:43;8.18;;;4.93;;
71947;SDS011;63257;55.082;38.772;2023-03-24T12:29:30;7.75;;;4.32;;
71947;SDS011;63257;55.082;38.772;2023-03-24T12:32:20;7.63;;;4.38;;
71947;SDS011;63257;55.082;38.772;2023-03-24T12:45:56;8.10;;;4.35;;
71947;SDS011;63257;55.082;38.772;2023-03-24T12:57:13;7.40;;;4.20;;
71947;SDS011;63257;55.082;38.772;2023-03-24T12:59:45;6.90;;;3.88;;
71947;SDS011;63257;55.082;38.772;2023-03-24T13:04:52;7.88;;;4.35;;
71947;SDS011;63257;55.082;38.772;2023-03-24T13:07:22;7.30;;;4.03;;
71947;SDS011;63257;55.082;38.772;2023-03-24T13:12:28;7.88;;;4.35;;
71947;SDS011;63257;55.082;38.772;2023-03-24T13:17:47;8.98;;;4.25;;
71947;SDS011;63257;55.082;38.772;2023-03-24T13:20:25;7.90;;;3.70;;
71947;SDS011;63257;55.082;38.772;2023-03-24T13:22:57;6.63;;;3.60;;
71947;SDS011;63257;55.082;38.772;2023-03-24T13:25:40;7.22;;;3.70;;
71947;SDS011;63257;55.082;38.772;2023-03-24T13:29:00;6.75;;;3.85;;
71947;SDS011;63257;55.082;38.772;2023-03-24T13:31:46;6.60;;;3.47;;
71947;SDS011;63257;55.082;38.772;2023-03-24T13:34:56;7.90;;;4.00;;
71947;SDS011;63257;55.082;38.772;2023-03-24T13:38:18;7.55;;;4.15;;
71947;SDS011;63257;55.082;38.772;2023-03-24T13:40:49;8.98;;;4.43;;
71947;SDS011;63257;55.082;38.772;2023-03-24T13:43:18;7.88;;;4.32;;
71947;SDS011;63257;55.082;38.772;2023-03-24T13:49:05;8.90;;;4.70;;
71947;SDS011;63257;55.082;38.772;2023-03-24T13:51:40;7.53;;;4.10;;
71947;SDS011;63257;55.082;38.772;2023-03-24T14:05:58;9.13;;;5.10;;
71947;SDS011;63257;55.082;38.772;2023-03-24T14:08:34;11.85;;;6.53;;
71947;SDS011;63257;55.082;38.772;2023-03-24T14:32:59;8.50;;;4.13;;
71947;SDS011;63257;55.082;38.772;2023-03-24T14:38:29;7.95;;;4.55;;
71947;SDS011;63257;55.082;38.772;2023-03-24T14:41:10;8.15;;;3.92;;
71947;SDS011;63257;55.082;38.772;2023-03-24T14:51:29;6.00;;;3.03;;
71947;SDS011;63257;55.082;38.772;2023-03-24T14:58:24;5.70;;;3.22;;
71947;SDS011;63257;55.082;38.772;2023-03-24T15:00:56;6.35;;;2.85;;
71947;SDS011;63257;55.082;38.772;2023-03-24T15:06:30;6.78;;;3.42;;
71947;SDS011;63257;55.082;38.772;2023-03-24T15:11:48;6.53;;;3.50;;
71947;SDS011;63257;55.082;38.772;2023-03-24T15:14:22;7.60;;;3.80;;
71947;SDS011;63257;55.082;38.772;2023-03-24T15:16:53;57.67;;;23.17;;
71947;SDS011;63257;55.082;38.772;2023-03-24T15:19:41;9.32;;;4.60;;
71947;SDS011;63257;55.082;38.772;2023-03-24T15:22:10;6.72;;;3.38;;
71947;SDS011;63257;55.082;38.772;2023-03-24T15:29:00;6.63;;;3.47;;
71947;SDS011;63257;55.082;38.772;2023-03-24T15:31:31;7.00;;;3.70;;
71947;SDS011;63257;55.082;38.772;2023-03-24T15:34:02;7.00;;;3.25;;
71947;SDS011;63257;55.082;38.772;2023-03-24T15:36:38;6.43;;;3.50;;
71947;SDS011;63257;55.082;38.772;2023-03-24T15:39:15;8.93;;;3.60;;
71947;SDS011;63257;55.082;38.772;2023-03-24T15:46:01;6.57;;;2.90;;
71947;SDS011;63257;55.082;38.772;2023-03-24T15:52:45;7.25;;;3.15;;
71947;SDS011;63257;55.082;38.772;2023-03-24T15:55:34;6.88;;;3.53;;
71947;SDS011;63257;55.082;38.772;2023-03-24T15:58:18;7.73;;;3.70;;
71947;SDS011;63257;55.082;38.772;2023-03-24T16:00:54;6.78;;;3.17;;
71947;SDS011;63257;55.082;38.772;2023-03-24T16:03:24;6.32;;;3.08;;
71947;SDS011;63257;55.082;38.772;2023-03-24T16:05:51;6.88;;;3.25;;
71947;SDS011;63257;55.082;38.772;2023-03-24T16:08:23;8.33;;;3.73;;
71947;SDS011;63257;55.082;38.772;2023-03-24T16:11:11;6.70;;;3.80;;
71947;SDS011;63257;55.082;38.772;2023-03-24T16:13:39;9.55;;;4.97;;
71947;SDS011;63257;55.082;38.772;2023-03-24T16:18:40;7.73;;;3.77;;
71947;SDS011;63257;55.082;38.772;2023-03-24T16:21:12;6.82;;;3.75;;
71947;SDS011;63257;55.082;38.772;2023-03-24T16:23:53;7.78;;;4.05;;
71947;SDS011;63257;55.082;38.772;2023-03-24T16:26:22;7.50;;;3.80;;
71947;SDS011;63257;55.082;38.772;2023-03-24T16:33:09;8.60;;;4.15;;
71947;SDS011;63257;55.082;38.772;2023-03-24T16:36:09;6.55;;;3.63;;
71947;SDS011;63257;55.082;38.772;2023-03-24T16:38:38;6.87;;;3.53;;
71947;SDS011;63257;55.082;38.772;2023-03-24T16:41:04;8.63;;;4.00;;
71947;SDS011;63257;55.082;38.772;2023-03-24T16:43:30;7.88;;;3.90;;
71947;SDS011;63257;55.082;38.772;2023-03-24T16:48:56;8.65;;;3.80;;
71947;SDS011;63257;55.082;38.772;2023-03-24T16:51:22;7.65;;;3.75;;
71947;SDS011;63257;55.082;38.772;2023-03-24T16:56:40;7.47;;;4.00;;
71947;SDS011;63257;55.082;38.772;2023-03-24T16:59:11;6.90;;;3.55;;
71947;SDS011;63257;55.082;38.772;2023-03-24T17:13:43;7.97;;;3.88;;
71947;SDS011;63257;55.082;38.772;2023-03-24T17:16:15;7.40;;;3.88;;
71947;SDS011;63257;55.082;38.772;2023-03-24T17:18:41;7.05;;;4.05;;
71947;SDS011;63257;55.082;38.772;2023-03-24T17:21:16;8.57;;;3.88;;
71947;SDS011;63257;55.082;38.772;2023-03-24T17:28:05;7.55;;;3.85;;
71947;SDS011;63257;55.082;38.772;2023-03-24T17:30:36;7.83;;;3.90;;
71947;SDS011;63257;55.082;38.772;2023-03-24T17:35:55;8.23;;;3.75;;
71947;SDS011;63257;55.082;38.772;2023-03-24T17:38:22;7.67;;;3.87;;
71947;SDS011;63257;55.082;38.772;2023-03-24T17:41:00;7.65;;;3.30;;
71947;SDS011;63257;55.082;38.772;2023-03-24T17:50:01;6.45;;;3.60;;
71947;SDS011;63257;55.082;38.772;2023-03-24T17:52:35;7.88;;;4.40;;
71947;SDS011;63257;55.082;38.772;2023-03-24T17:55:05;8.70;;;4.35;;
71947;SDS011;63257;55.082;38.772;2023-03-24T17:57:34;7.37;;;3.87;;
71947;SDS011;63257;55.082;38.772;2023-03-24T18:00:00;8.20;;;3.75;;
71947;SDS011;63257;55.082;38.772;2023-03-24T18:02:26;8.52;;;4.65;;
71947;SDS011;63257;55.082;38.772;2023-03-24T18:05:04;8.02;;;4.28;;
71947;SDS011;63257;55.082;38.772;2023-03-24T18:07:31;6.80;;;3.50;;
71947;SDS011;63257;55.082;38.772;2023-03-24T18:09:58;6.82;;;3.60;;
71947;SDS011;63257;55.082;38.772;2023-03-24T18:12:30;7.75;;;3.92;;
71947;SDS011;63257;55.082;38.772;2023-03-24T18:19:37;8.43;;;4.07;;
71947;SDS011;63257;55.082;38.772;2023-03-24T18:22:02;7.30;;;3.72;;
71947;SDS011;63257;55.082;38.772;2023-03-24T18:24:35;8.35;;;3.70;;
71947;SDS011;63257;55.082;38.772;2023-03-24T18:27:01;7.33;;;3.33;;
71947;SDS011;63257;55.082;38.772;2023-03-24T18:29:30;8.00;;;3.50;;
71947;SDS011;63257;55.082;38.772;2023-03-24T18:31:59;8.57;;;4.38;;
71947;SDS011;63257;55.082;38.772;2023-03-24T18:34:25;7.20;;;3.80;;
71947;SDS011;63257;55.082;38.772;2023-03-24T18:45:05;8.65;;;4.30;;
71947;SDS011;63257;55.082;38.772;2023-03-24T18:47:33;6.95;;;4.03;;
71947;SDS011;63257;55.082;38.772;2023-03-24T18:49:59;8.23;;;4.13;;
71947;SDS011;63257;55.082;38.772;2023-03-24T18:52:25;7.72;;;3.88;;
71947;SDS011;63257;55.082;38.772;2023-03-24T18:58:12;8.50;;;4.70;;
71947;SDS011;63257;55.082;38.772;2023-03-24T19:04:52;9.55;;;4.50;;
71947;SDS011;63257;55.082;38.772;2023-03-24T19:07:18;8.35;;;4.40;;
71947;SDS011;63257;55.082;38.772;2023-03-24T19:09:50;9.82;;;5.20;;